Time;durP1;ratioP1;P1;durP2;ratioP2;P2;SDS_P1;SDS_P2;PMS_P1;PMS_P2;Temp;Humidity;BMP_temperature;BMP_pressure;BME280_temperature;BME280_humidity;BME280_pressure;Samples;Min_cycle;Max_cycle;Signal;HPM_P1;HPM_P2
2021/07/18 00:01:16;;;;;;;34.17;31.50;;;18.20;94.80;;;;;;5239251;28;20044;-68
2021/07/18 00:03:48;;;;;;;34.40;31.35;;;18.20;94.80;;;;;;5239675;28;20094;-69
2021/07/18 00:06:20;;;;;;;33.90;31.13;;;18.20;94.90;;;;;;5237593;28;20044;-68
2021/07/18 00:08:52;;;;;;;33.10;30.40;;;18.20;94.50;;;;;;5238599;28;20494;-69
2021/07/18 00:11:24;;;;;;;33.38;30.77;;;18.20;94.60;;;;;;5237429;28;20134;-69
2021/07/18 00:13:56;;;;;;;33.95;31.15;;;18.30;94.60;;;;;;5238766;28;20893;-70
2021/07/18 00:16:28;;;;;;;33.20;30.30;;;18.30;94.60;;;;;;5237959;28;20056;-69
2021/07/18 00:19:00;;;;;;;32.65;29.95;;;18.30;94.80;;;;;;5236890;28;20442;-68
2021/07/18 00:21:32;;;;;;;32.70;30.20;;;18.30;94.90;;;;;;5238654;28;20038;-69
2021/07/18 00:24:04;;;;;;;32.55;30.05;;;18.30;94.70;;;;;;5238966;28;20136;-68
2021/07/18 00:26:36;;;;;;;32.88;30.00;;;18.30;94.80;;;;;;5237867;28;20061;-69
2021/07/18 00:29:08;;;;;;;31.63;29.10;;;18.30;94.70;;;;;;5238439;28;20613;-69
2021/07/18 00:31:40;;;;;;;30.55;28.25;;;18.30;94.80;;;;;;5237624;28;20132;-69
2021/07/18 00:34:12;;;;;;;30.80;28.40;;;18.30;94.80;;;;;;5238880;28;20459;-68
2021/07/18 00:36:44;;;;;;;29.55;27.25;;;18.30;94.90;;;;;;5238244;28;20040;-68
2021/07/18 00:39:16;;;;;;;29.50;27.05;;;18.30;95.00;;;;;;5225992;28;20449;-70
2021/07/18 00:41:48;;;;;;;28.80;26.60;;;18.30;95.50;;;;;;5238971;28;20133;-68
2021/07/18 00:44:20;;;;;;;28.45;26.45;;;18.30;95.10;;;;;;5239858;28;20109;-71
2021/07/18 00:46:51;;;;;;;29.10;26.90;;;18.30;95.00;;;;;;5237180;28;20119;-68
2021/07/18 00:49:24;;;;;;;29.77;27.58;;;18.20;94.90;;;;;;5238982;28;20589;-69
2021/07/18 00:51:56;;;;;;;30.00;27.65;;;18.20;95.10;;;;;;5239293;28;20113;-70
2021/07/18 00:54:28;;;;;;;32.63;30.08;;;18.20;95.10;;;;;;5238599;28;20040;-69
2021/07/18 00:57:02;;;;;;;34.97;32.00;;;18.20;95.30;;;;;;5237741;28;20076;-68
2021/07/18 00:59:36;;;;;;;34.63;31.73;;;18.10;95.40;;;;;;5237264;28;20044;-69
2021/07/18 01:02:08;;;;;;;35.25;32.45;;;18.10;96.40;;;;;;5237960;28;20184;-68
2021/07/18 01:04:40;;;;;;;36.88;33.70;;;18.10;95.60;;;;;;5219805;28;20409;-68
2021/07/18 01:07:12;;;;;;;36.95;33.70;;;18.10;95.50;;;;;;5237895;28;20078;-68
2021/07/18 01:09:44;;;;;;;36.97;33.75;;;18.10;95.60;;;;;;5236650;28;20072;-69
2021/07/18 01:12:20;;;;;;;37.22;34.10;;;18.10;95.40;;;;;;5237532;28;20476;-69
2021/07/18 01:14:52;;;;;;;37.42;34.00;;;18.10;95.40;;;;;;5219516;28;20044;-69
2021/07/18 01:17:25;;;;;;;37.33;34.03;;;18.10;95.20;;;;;;5236937;28;20052;-69
2021/07/18 01:19:57;;;;;;;36.92;33.83;;;18.10;95.20;;;;;;5237558;28;20041;-69
2021/07/18 01:22:29;;;;;;;38.85;34.97;;;18.10;95.00;;;;;;5236684;28;20076;-68
2021/07/18 01:25:05;;;;;;;36.83;33.83;;;18.00;95.20;;;;;;5236949;28;20040;-69
2021/07/18 01:27:40;;;;;;;37.70;34.42;;;18.00;95.30;;;;;;5226225;28;20068;-69
2021/07/18 01:30:13;;;;;;;36.38;33.28;;;18.00;95.30;;;;;;5236268;28;20124;-69
2021/07/18 01:32:46;;;;;;;36.67;33.60;;;18.00;95.00;;;;;;5236111;28;20048;-68
2021/07/18 01:35:17;;;;;;;35.97;32.90;;;18.00;95.10;;;;;;5236109;28;20090;-69
2021/07/18 01:37:49;;;;;;;36.03;32.83;;;17.90;95.00;;;;;;5227705;28;20040;-70
2021/07/18 01:40:21;;;;;;;36.35;33.13;;;18.00;95.00;;;;;;5235817;28;20269;-70
2021/07/18 01:42:55;;;;;;;36.35;33.17;;;18.00;94.70;;;;;;5238661;28;20075;-70
2021/07/18 01:45:27;;;;;;;35.28;32.40;;;18.00;94.70;;;;;;5224571;28;20784;-68
2021/07/18 01:47:59;;;;;;;34.85;31.77;;;18.00;94.50;;;;;;5237786;28;20045;-69
2021/07/18 01:50:32;;;;;;;35.20;32.10;;;17.90;94.30;;;;;;5236339;28;20121;-71
2021/07/18 01:53:05;;;;;;;35.08;32.08;;;18.00;94.40;;;;;;5225196;28;20048;-69
2021/07/18 01:55:37;;;;;;;35.45;32.35;;;18.00;94.30;;;;;;5235511;28;20071;-69
2021/07/18 01:58:09;;;;;;;34.92;31.73;;;18.00;94.30;;;;;;5238504;28;20128;-68
2021/07/18 02:00:41;;;;;;;35.17;32.17;;;18.00;94.20;;;;;;5236025;28;20059;-69
2021/07/18 02:03:14;;;;;;;35.47;32.50;;;18.00;94.20;;;;;;5222616;28;20704;-69
2021/07/18 02:05:45;;;;;;;34.60;31.65;;;18.10;94.30;;;;;;5236137;28;20454;-69
2021/07/18 02:08:19;;;;;;;34.75;31.75;;;18.10;94.20;;;;;;5239051;28;20066;-70
2021/07/18 02:10:51;;;;;;;34.85;31.95;;;18.10;94.10;;;;;;5219705;28;20523;-69
2021/07/18 02:13:23;;;;;;;34.60;31.63;;;18.00;93.80;;;;;;5238243;28;20102;-70
2021/07/18 02:15:58;;;;;;;35.80;32.38;;;18.00;94.00;;;;;;5238820;28;20049;-68
2021/07/18 02:18:30;;;;;;;35.60;32.70;;;18.00;94.10;;;;;;5238276;28;20137;-69
2021/07/18 02:21:02;;;;;;;34.80;31.77;;;18.00;94.10;;;;;;5222417;28;20044;-70
2021/07/18 02:23:35;;;;;;;34.67;31.67;;;18.00;93.70;;;;;;5235456;28;20056;-69
2021/07/18 02:26:06;;;;;;;33.63;30.90;;;18.00;94.00;;;;;;5236290;28;20156;-68
2021/07/18 02:28:38;;;;;;;34.10;31.17;;;17.90;94.10;;;;;;5237967;28;20526;-69
2021/07/18 02:31:10;;;;;;;33.70;30.83;;;17.90;93.80;;;;;;5237454;28;20136;-69
2021/07/18 02:33:42;;;;;;;36.20;32.72;;;17.90;94.00;;;;;;5238974;28;20442;-68
2021/07/18 02:36:14;;;;;;;34.55;31.58;;;17.90;94.20;;;;;;5237583;28;20575;-69
2021/07/18 02:38:46;;;;;;;34.25;31.25;;;17.80;95.00;;;;;;5237708;28;20068;-69
2021/07/18 02:41:18;;;;;;;34.83;31.77;;;17.90;94.20;;;;;;5237275;28;20056;-68
2021/07/18 02:43:50;;;;;;;34.00;31.10;;;17.80;94.30;;;;;;5238768;28;20041;-69
2021/07/18 02:46:22;;;;;;;34.70;31.73;;;17.80;94.50;;;;;;5238312;28;20068;-68
2021/07/18 02:48:54;;;;;;;35.67;32.50;;;17.80;94.40;;;;;;5238679;28;20048;-68
2021/07/18 02:51:26;;;;;;;34.17;31.20;;;17.80;94.40;;;;;;5237818;28;20049;-68
2021/07/18 02:53:58;;;;;;;35.53;32.33;;;17.70;94.80;;;;;;5237298;28;20125;-69
2021/07/18 02:56:30;;;;;;;34.10;31.17;;;17.80;94.60;;;;;;5237617;28;20155;-70
2021/07/18 02:59:02;;;;;;;35.67;32.22;;;17.80;94.40;;;;;;5225691;28;20040;-68
2021/07/18 03:01:34;;;;;;;34.88;31.75;;;17.80;94.50;;;;;;5241553;28;20056;-70
2021/07/18 03:04:06;;;;;;;35.30;31.73;;;17.80;94.30;;;;;;5242232;28;20040;-69
2021/07/18 03:06:38;;;;;;;33.80;30.58;;;17.80;94.00;;;;;;5240028;28;20041;-69
2021/07/18 03:09:10;;;;;;;33.67;30.67;;;17.80;94.30;;;;;;5226286;28;20064;-68
2021/07/18 03:11:42;;;;;;;32.63;29.73;;;17.80;94.30;;;;;;5240149;28;20044;-68
2021/07/18 03:14:14;;;;;;;34.33;31.48;;;17.80;94.30;;;;;;5229921;28;20591;-68
2021/07/18 03:16:47;;;;;;;33.50;30.23;;;17.80;94.10;;;;;;5241531;28;20076;-69
2021/07/18 03:19:19;;;;;;;32.88;30.17;;;17.80;94.10;;;;;;5241112;28;20060;-70
2021/07/18 03:21:51;;;;;;;34.03;31.17;;;17.80;93.90;;;;;;5241120;28;20033;-71
2021/07/18 03:24:23;;;;;;;32.58;30.02;;;17.70;94.20;;;;;;5241018;28;20434;-69
2021/07/18 03:26:55;;;;;;;32.58;29.60;;;17.70;94.40;;;;;;5239367;28;20036;-69
2021/07/18 03:29:27;;;;;;;32.33;29.55;;;17.70;94.00;;;;;;5240407;28;20127;-71
2021/07/18 03:31:59;;;;;;;32.88;30.05;;;17.70;94.00;;;;;;5208875;28;20138;-68
2021/07/18 03:34:32;;;;;;;32.13;29.55;;;17.70;93.80;;;;;;5240860;28;20044;-69
2021/07/18 03:37:04;;;;;;;32.90;29.98;;;17.70;93.70;;;;;;5240727;28;20132;-69
2021/07/18 03:39:36;;;;;;;31.52;28.65;;;17.70;93.30;;;;;;5240278;28;20417;-70
2021/07/18 03:42:08;;;;;;;32.08;29.38;;;17.60;93.70;;;;;;5240013;28;20167;-69
2021/07/18 03:44:40;;;;;;;32.90;30.05;;;17.70;93.30;;;;;;5240928;28;20040;-70
2021/07/18 03:47:14;;;;;;;31.20;28.45;;;17.70;93.50;;;;;;5239803;28;20189;-70
2021/07/18 03:49:45;;;;;;;30.73;28.23;;;17.70;93.40;;;;;;5241340;28;20051;-70
2021/07/18 03:52:17;;;;;;;31.63;28.80;;;17.70;93.30;;;;;;5239215;28;20117;-72
2021/07/18 03:54:49;;;;;;;31.10;28.40;;;17.80;93.00;;;;;;5240865;28;20557;-69
2021/07/18 03:57:21;;;;;;;31.65;28.85;;;17.70;92.90;;;;;;5240585;28;20127;-70
2021/07/18 03:59:53;;;;;;;31.42;28.83;;;17.80;92.80;;;;;;5240349;28;20070;-70
2021/07/18 04:02:25;;;;;;;30.83;28.33;;;17.80;92.60;;;;;;5238765;28;20144;-68
2021/07/18 04:04:57;;;;;;;30.25;27.40;;;17.70;92.70;;;;;;5240780;28;20508;-69
2021/07/18 04:07:32;;;;;;;30.52;27.77;;;17.70;92.60;;;;;;5240292;28;20094;-69
2021/07/18 04:10:05;;;;;;;29.73;26.88;;;17.70;92.60;;;;;;5239779;28;20517;-70
2021/07/18 04:12:37;;;;;;;30.33;27.63;;;17.70;92.50;;;;;;5240455;28;20097;-69
2021/07/18 04:15:09;;;;;;;29.65;27.02;;;17.70;92.40;;;;;;5240204;28;20044;-70
2021/07/18 04:17:41;;;;;;;30.92;27.95;;;17.70;92.40;;;;;;5239290;28;20151;-68
2021/07/18 04:20:14;;;;;;;29.70;27.20;;;17.70;92.00;;;;;;5237856;28;20044;-68
2021/07/18 04:22:46;;;;;;;29.90;27.30;;;17.70;92.10;;;;;;5238826;28;21115;-68
2021/07/18 04:25:18;;;;;;;29.35;26.88;;;17.70;91.90;;;;;;5238130;28;20098;-68
2021/07/18 04:27:50;;;;;;;29.65;26.88;;;17.60;91.50;;;;;;5240199;28;20132;-69
2021/07/18 04:30:22;;;;;;;30.23;27.60;;;17.60;91.80;;;;;;5237950;28;20087;-69
2021/07/18 04:32:54;;;;;;;29.83;27.15;;;17.60;91.90;;;;;;5240483;28;20036;-68
2021/07/18 04:35:26;;;;;;;28.42;25.67;;;17.60;92.00;;;;;;5238054;28;20082;-68
2021/07/18 04:37:58;;;;;;;29.98;27.35;;;17.60;92.00;;;;;;5243870;28;20040;-68
2021/07/18 04:40:31;;;;;;;29.92;27.02;;;17.50;91.90;;;;;;5239078;28;20072;-68
2021/07/18 04:43:03;;;;;;;29.38;26.77;;;17.50;92.00;;;;;;5240309;28;20045;-68
2021/07/18 04:45:35;;;;;;;29.13;26.63;;;17.50;92.00;;;;;;5239037;28;20541;-68
2021/07/18 04:48:07;;;;;;;28.83;26.17;;;17.50;92.20;;;;;;5239852;28;20128;-67
2021/07/18 04:50:39;;;;;;;29.73;26.85;;;17.50;92.10;;;;;;5238941;28;20037;-67
2021/07/18 04:53:11;;;;;;;28.92;26.13;;;17.50;92.10;;;;;;5240431;28;20059;-68
2021/07/18 04:55:43;;;;;;;29.88;27.13;;;17.50;92.00;;;;;;5239536;28;20090;-67
2021/07/18 04:58:15;;;;;;;30.35;27.45;;;17.50;91.60;;;;;;5239928;28;20058;-68
2021/07/18 05:00:47;;;;;;;29.02;26.35;;;17.50;91.60;;;;;;5238801;28;20090;-68
2021/07/18 05:03:19;;;;;;;28.77;26.15;;;17.50;91.90;;;;;;5221658;28;20135;-68
2021/07/18 05:05:51;;;;;;;27.75;25.25;;;17.50;91.50;;;;;;5239683;28;20056;-68
2021/07/18 05:08:23;;;;;;;28.75;25.98;;;17.50;91.40;;;;;;5239219;28;20672;-67
2021/07/18 05:10:55;;;;;;;27.38;25.13;;;17.50;91.40;;;;;;5238399;28;20041;-67
2021/07/18 05:13:27;;;;;;;28.30;25.90;;;17.50;91.40;;;;;;5238907;28;20577;-69
2021/07/18 05:15:59;;;;;;;27.33;25.02;;;17.50;91.60;;;;;;5228037;28;20064;-68
2021/07/18 05:18:31;;;;;;;27.85;25.30;;;17.50;91.60;;;;;;5238507;28;20044;-68
2021/07/18 05:21:03;;;;;;;27.80;25.50;;;17.50;91.20;;;;;;5238386;28;20044;-69
2021/07/18 05:23:35;;;;;;;31.33;28.88;;;17.50;91.70;;;;;;5237621;28;20037;-69
2021/07/18 05:26:07;;;;;;;27.23;24.92;;;17.60;91.70;;;;;;5238807;28;20064;-69
2021/07/18 05:28:39;;;;;;;27.13;24.73;;;17.60;91.40;;;;;;5239329;28;20420;-68
2021/07/18 05:31:11;;;;;;;27.40;24.98;;;17.60;90.60;;;;;;5236651;28;20059;-68
2021/07/18 05:33:43;;;;;;;25.85;23.85;;;17.60;90.90;;;;;;5238913;28;20514;-68
2021/07/18 05:36:14;;;;;;;26.83;24.33;;;17.60;90.40;;;;;;5238269;28;20136;-67
2021/07/18 05:38:46;;;;;;;26.55;24.35;;;17.60;89.40;;;;;;5237966;28;20064;-69
2021/07/18 05:41:18;;;;;;;27.15;24.88;;;17.60;90.60;;;;;;5229137;28;20033;-69
2021/07/18 05:43:50;;;;;;;26.63;24.38;;;17.60;90.30;;;;;;5239705;28;20125;-69
2021/07/18 05:46:22;;;;;;;25.60;23.50;;;17.70;90.60;;;;;;5236838;28;20050;-69
2021/07/18 05:48:58;;;;;;;26.83;24.52;;;17.70;90.50;;;;;;5238709;28;20048;-68
2021/07/18 05:51:29;;;;;;;27.70;25.17;;;17.70;90.20;;;;;;5238344;28;20117;-68
2021/07/18 05:54:01;;;;;;;25.75;23.50;;;17.70;90.20;;;;;;5236081;28;20037;-68
2021/07/18 05:56:33;;;;;;;25.90;23.83;;;17.60;90.70;;;;;;5220866;28;20197;-69
2021/07/18 05:59:05;;;;;;;26.25;23.85;;;17.60;89.10;;;;;;5237745;28;20531;-67
2021/07/18 06:01:37;;;;;;;26.02;23.70;;;17.60;89.60;;;;;;5235902;28;20067;-67
2021/07/18 06:04:09;;;;;;;25.90;23.55;;;17.50;89.30;;;;;;5238095;28;20047;-68
2021/07/18 06:06:41;;;;;;;26.02;23.67;;;17.50;89.60;;;;;;5237869;28;20063;-68
2021/07/18 06:09:13;;;;;;;26.05;23.73;;;17.50;89.60;;;;;;5238220;28;20514;-68
2021/07/18 06:11:45;;;;;;;26.48;24.27;;;17.50;89.60;;;;;;5237405;28;20052;-69
2021/07/18 06:14:16;;;;;;;25.67;23.27;;;17.50;89.60;;;;;;5238081;28;20075;-72
2021/07/18 06:16:48;;;;;;;25.17;22.98;;;17.50;89.50;;;;;;5236392;28;20165;-70
2021/07/18 06:19:20;;;;;;;26.13;23.80;;;17.50;89.60;;;;;;5237398;28;20063;-71
2021/07/18 06:21:52;;;;;;;25.83;23.55;;;17.40;89.60;;;;;;5237382;28;20048;-70
2021/07/18 06:24:24;;;;;;;25.40;23.25;;;17.40;89.80;;;;;;5238215;28;20040;-72
2021/07/18 06:26:56;;;;;;;25.98;23.67;;;17.40;89.70;;;;;;5232386;28;20064;-71
2021/07/18 06:29:28;;;;;;;24.60;22.40;;;17.40;89.70;;;;;;5236741;28;20044;-71
2021/07/18 06:32:00;;;;;;;25.70;23.25;;;17.40;89.90;;;;;;5236988;28;20052;-71
2021/07/18 06:34:33;;;;;;;25.88;23.55;;;17.40;90.00;;;;;;5238826;28;20048;-71
2021/07/18 06:37:05;;;;;;;25.30;23.10;;;17.40;89.90;;;;;;5227598;28;20049;-70
2021/07/18 06:39:37;;;;;;;25.90;23.45;;;17.50;90.10;;;;;;5241352;28;20044;-72
2021/07/18 06:42:09;;;;;;;26.00;23.50;;;17.50;89.80;;;;;;5210048;28;20129;-71
2021/07/18 06:44:41;;;;;;;25.48;23.35;;;17.50;89.60;;;;;;5239241;28;20721;-72
2021/07/18 06:47:13;;;;;;;25.63;23.50;;;17.50;89.60;;;;;;5240001;28;20052;-73
2021/07/18 06:49:44;;;;;;;25.27;23.02;;;17.60;89.60;;;;;;5241156;28;20261;-73
2021/07/18 06:52:16;;;;;;;25.35;23.20;;;17.60;89.50;;;;;;5240933;28;20690;-72
2021/07/18 06:54:48;;;;;;;25.48;23.20;;;17.50;89.50;;;;;;5241645;28;20805;-73
2021/07/18 06:57:21;;;;;;;25.48;23.27;;;17.50;89.50;;;;;;5241488;28;20052;-72
2021/07/18 06:59:53;;;;;;;25.70;23.33;;;17.50;89.50;;;;;;5239481;28;20148;-72
2021/07/18 07:02:25;;;;;;;26.30;23.83;;;17.60;89.40;;;;;;5240211;28;20139;-72
2021/07/18 07:04:57;;;;;;;26.48;24.27;;;17.50;88.90;;;;;;5239864;28;20124;-72
2021/07/18 07:07:28;;;;;;;26.20;23.80;;;17.50;88.90;;;;;;5221067;28;20147;-71
2021/07/18 07:10:00;;;;;;;25.95;23.60;;;17.50;89.00;;;;;;5238937;28;20110;-72
2021/07/18 07:12:33;;;;;;;25.67;23.45;;;17.50;89.10;;;;;;5238606;28;20056;-72
2021/07/18 07:15:05;;;;;;;27.95;25.42;;;17.50;89.10;;;;;;5239343;28;20040;-73
2021/07/18 07:17:38;;;;;;;25.35;23.35;;;17.50;89.10;;;;;;5239865;28;20110;-72
2021/07/18 07:20:11;;;;;;;25.92;23.70;;;17.50;88.80;;;;;;5238551;28;20633;-71
2021/07/18 07:22:43;;;;;;;25.75;23.45;;;17.50;89.10;;;;;;5224299;28;20489;-73
2021/07/18 07:25:16;;;;;;;26.60;24.45;;;17.50;89.10;;;;;;5223457;28;20110;-72
2021/07/18 07:27:47;;;;;;;27.23;24.55;;;17.50;89.40;;;;;;5223811;28;20045;-73
2021/07/18 07:30:20;;;;;;;27.40;24.80;;;17.60;89.50;;;;;;5238799;28;20043;-72
2021/07/18 07:32:52;;;;;;;25.92;23.70;;;17.60;89.70;;;;;;5210699;28;20036;-71
2021/07/18 07:35:24;;;;;;;26.08;23.67;;;17.60;89.20;;;;;;5237842;28;20050;-72
2021/07/18 07:37:55;;;;;;;26.08;23.77;;;17.70;89.10;;;;;;5239012;28;20563;-72
2021/07/18 07:40:27;;;;;;;27.25;24.75;;;17.70;89.10;;;;;;5237069;28;20822;-71
2021/07/18 07:42:59;;;;;;;25.48;23.25;;;17.70;89.20;;;;;;5239494;28;20605;-72
2021/07/18 07:45:31;;;;;;;25.05;23.02;;;17.80;88.90;;;;;;5237278;28;21060;-73
2021/07/18 07:48:04;;;;;;;26.13;23.88;;;17.80;88.70;;;;;;5239543;28;20049;-72
2021/07/18 07:50:37;;;;;;;26.73;24.13;;;17.80;88.60;;;;;;5237206;28;20127;-73
2021/07/18 07:53:09;;;;;;;26.20;23.85;;;17.80;88.70;;;;;;5236684;28;20040;-72
2021/07/18 07:55:41;;;;;;;26.88;24.55;;;17.80;88.80;;;;;;5238978;28;20044;-73
2021/07/18 07:58:13;;;;;;;26.50;24.23;;;17.90;88.60;;;;;;5239075;28;20569;-73
2021/07/18 08:00:45;;;;;;;27.40;24.83;;;17.90;88.30;;;;;;5237708;28;20052;-71
2021/07/18 08:03:17;;;;;;;25.30;23.10;;;17.90;88.70;;;;;;5223936;28;20098;-72
2021/07/18 08:05:50;;;;;;;25.98;23.88;;;17.90;88.40;;;;;;5208559;28;20074;-73
2021/07/18 08:08:22;;;;;;;26.23;24.13;;;17.90;88.30;;;;;;5238335;28;20558;-73
2021/07/18 08:11:10;;;;;;;25.27;23.25;;;17.80;88.20;;;;;;5242235;28;20090;-71
2021/07/18 08:13:43;;;;;;;24.98;22.98;;;17.80;88.60;;;;;;5243821;28;20105;-71
2021/07/18 08:16:15;;;;;;;25.38;23.08;;;17.80;88.70;;;;;;5223361;28;20510;-71
2021/07/18 08:18:47;;;;;;;28.42;24.60;;;17.80;88.60;;;;;;5223406;28;20056;-72
2021/07/18 08:21:19;;;;;;;26.13;23.83;;;17.80;88.60;;;;;;5234339;28;20048;-71
2021/07/18 08:24:11;;;;;;;24.80;22.83;;;17.70;88.60;;;;;;5236745;28;20048;-72
2021/07/18 08:26:43;;;;;;;26.13;23.65;;;17.70;88.50;;;;;;5222412;28;20391;-72
2021/07/18 08:29:15;;;;;;;25.80;23.42;;;17.70;88.60;;;;;;5237935;28;20613;-73
2021/07/18 08:31:47;;;;;;;26.17;23.75;;;17.70;88.70;;;;;;5235945;28;20105;-74
2021/07/18 08:34:19;;;;;;;25.42;23.25;;;17.70;88.50;;;;;;5219781;28;20049;-72
2021/07/18 08:36:52;;;;;;;25.75;23.55;;;17.70;88.40;;;;;;5236421;28;20036;-71
2021/07/18 08:39:24;;;;;;;26.85;24.38;;;17.70;88.00;;;;;;5236710;28;20052;-71
2021/07/18 08:41:57;;;;;;;25.58;23.38;;;17.70;88.30;;;;;;5236954;28;20099;-73
2021/07/18 08:44:34;;;;;;;26.05;23.65;;;17.60;88.20;;;;;;5219302;28;20466;-71
2021/07/18 08:47:06;;;;;;;25.58;23.13;;;17.70;88.80;;;;;;5234003;28;20102;-71
2021/07/18 08:49:39;;;;;;;24.60;22.58;;;17.70;88.30;;;;;;5237628;28;20602;-71
2021/07/18 08:52:11;;;;;;;25.67;23.40;;;17.70;88.30;;;;;;5235758;28;20037;-73
2021/07/18 08:54:44;;;;;;;25.73;23.42;;;17.70;88.20;;;;;;5219031;28;20041;-70
2021/07/18 08:57:19;;;;;;;25.42;23.08;;;17.60;88.10;;;;;;5221082;28;20048;-70
2021/07/18 08:59:52;;;;;;;25.00;22.98;;;17.70;89.00;;;;;;5236505;28;20032;-70
2021/07/18 09:02:24;;;;;;;25.25;22.92;;;17.60;89.10;;;;;;5221940;28;20048;-71
2021/07/18 09:04:56;;;;;;;23.90;21.77;;;17.70;89.00;;;;;;5235447;28;20045;-71
2021/07/18 09:07:29;;;;;;;24.17;22.30;;;17.70;89.10;;;;;;5205512;28;20037;-70
2021/07/18 09:10:05;;;;;;;25.27;22.95;;;17.70;89.00;;;;;;5222357;28;20079;-71
2021/07/18 09:12:37;;;;;;;24.08;22.27;;;17.80;88.90;;;;;;5236377;28;20545;-72
2021/07/18 09:15:10;;;;;;;25.48;23.13;;;17.80;89.00;;;;;;5234861;28;20186;-73
2021/07/18 09:17:42;;;;;;;23.20;21.30;;;17.80;89.20;;;;;;5237566;28;20509;-71
2021/07/18 09:20:20;;;;;;;23.85;21.95;;;17.80;89.00;;;;;;5206639;28;20044;-73
2021/07/18 09:23:13;;;;;;;24.65;22.63;;;17.80;88.90;;;;;;5235197;28;20044;-72
2021/07/18 09:25:46;;;;;;;24.05;22.08;;;17.80;89.00;;;;;;5237845;28;20113;-72
2021/07/18 09:28:21;;;;;;;23.98;21.90;;;17.80;88.90;;;;;;5242161;28;20048;-72
2021/07/18 09:30:53;;;;;;;24.50;22.33;;;17.80;88.80;;;;;;5235793;28;20502;-73
2021/07/18 09:33:28;;;;;;;25.83;23.52;;;17.70;89.10;;;;;;5228650;28;20040;-71
2021/07/18 09:39:09;;;;;;;23.48;21.45;;;17.80;89.00;;;;;;5092233;23;20155;-71
2021/07/18 09:41:46;;;;;;;24.63;22.45;;;17.80;89.00;;;;;;5042712;29;20055;-72
2021/07/18 09:44:17;;;;;;;24.85;22.75;;;17.80;89.10;;;;;;5046152;29;20044;-71
2021/07/18 09:46:50;;;;;;;24.92;22.83;;;17.80;89.10;;;;;;5041580;29;20155;-73
2021/07/18 09:49:34;;;;;;;23.63;21.70;;;17.80;88.70;;;;;;5033031;29;20037;-73
2021/07/18 09:52:27;;;;;;;23.98;21.98;;;17.80;88.70;;;;;;5045885;29;20044;-73
2021/07/18 09:54:59;;;;;;;22.95;21.13;;;17.80;88.80;;;;;;5049575;29;20072;-71
2021/07/18 09:57:40;;;;;;;23.33;21.42;;;17.80;88.50;;;;;;5045671;29;20203;-71
2021/07/18 10:00:12;;;;;;;23.80;21.92;;;17.80;88.90;;;;;;5046373;29;20108;-72
2021/07/18 10:02:45;;;;;;;23.85;21.90;;;17.80;88.90;;;;;;5046032;29;20120;-72
2021/07/18 10:05:27;;;;;;;22.67;20.98;;;17.80;88.80;;;;;;5037069;29;20072;-72
2021/07/18 10:08:10;;;;;;;22.80;20.88;;;17.80;88.80;;;;;;5048998;29;20052;-72
2021/07/18 10:10:42;;;;;;;22.42;20.83;;;17.90;89.00;;;;;;5043641;29;20064;-72
2021/07/18 10:13:14;;;;;;;23.77;21.98;;;18.00;89.20;;;;;;5028510;29;20179;-70
2021/07/18 10:15:46;;;;;;;22.95;21.05;;;18.00;89.10;;;;;;5043280;29;20054;-70
2021/07/18 10:18:19;;;;;;;24.45;22.50;;;18.10;89.00;;;;;;5043009;29;20045;-70
2021/07/18 10:20:51;;;;;;;22.95;21.08;;;18.20;89.20;;;;;;5046315;29;20077;-69
2021/07/18 10:23:24;;;;;;;23.35;21.45;;;18.30;89.30;;;;;;5048042;29;20108;-70
2021/07/18 10:26:21;;;;;;;23.05;21.35;;;18.40;89.50;;;;;;5046604;29;20101;-71
2021/07/18 10:28:54;;;;;;;23.35;21.55;;;18.50;87.90;;;;;;5043448;29;20957;-71
2021/07/18 10:31:49;;;;;;;22.38;20.73;;;18.60;87.90;;;;;;5044280;29;20052;-70
2021/07/18 10:34:31;;;;;;;23.00;21.15;;;18.80;88.30;;;;;;5033520;29;20575;-73
2021/07/18 10:37:08;;;;;;;23.30;21.52;;;18.80;87.90;;;;;;5046678;29;20143;-72
2021/07/18 10:39:44;;;;;;;24.02;22.13;;;18.90;88.20;;;;;;5046536;29;20128;-72
2021/07/18 10:42:29;;;;;;;22.92;21.13;;;18.90;87.70;;;;;;5042409;29;20104;-72
2021/07/18 10:45:24;;;;;;;23.25;21.55;;;19.00;87.70;;;;;;5046108;29;20077;-72
2021/07/18 10:48:05;;;;;;;23.67;21.80;;;19.00;87.90;;;;;;5045147;29;20144;-71
2021/07/18 10:50:43;;;;;;;23.30;21.60;;;19.10;87.40;;;;;;5045941;29;20542;-72
2021/07/18 10:53:29;;;;;;;23.70;21.98;;;19.10;86.90;;;;;;5033121;29;20060;-72
2021/07/18 10:56:02;;;;;;;24.08;22.35;;;19.10;86.40;;;;;;5031602;29;21040;-71
2021/07/18 10:58:40;;;;;;;24.13;22.33;;;19.10;86.40;;;;;;5030044;29;20052;-72
2021/07/18 11:01:24;;;;;;;22.73;21.13;;;19.00;86.40;;;;;;5049816;29;20099;-73
2021/07/18 11:04:04;;;;;;;23.88;22.08;;;18.90;86.20;;;;;;5042477;29;20690;-71
2021/07/18 11:06:39;;;;;;;23.27;21.50;;;18.90;86.30;;;;;;5046344;29;20078;-72
2021/07/18 11:09:19;;;;;;;22.85;21.15;;;18.90;86.30;;;;;;5046807;29;20151;-72
2021/07/18 11:11:55;;;;;;;;;;;18.90;86.40;;;;;;5045352;29;20544;-71
2021/07/18 11:14:35;;;;;;;21.90;20.30;;;18.90;86.50;;;;;;5044942;29;19928;-71
2021/07/18 11:17:23;;;;;;;22.25;20.65;;;18.80;86.60;;;;;;5046662;29;20053;-70
2021/07/18 11:20:02;;;;;;;22.23;20.63;;;18.90;86.70;;;;;;5047011;29;20168;-72
2021/07/18 11:22:58;;;;;;;22.15;20.58;;;19.00;86.20;;;;;;5047983;29;20085;-70
2021/07/18 11:26:26;;;;;;;22.42;20.83;;;19.10;86.20;;;;;;5039873;29;20037;-72
2021/07/18 11:29:01;;;;;;;23.38;21.65;;;19.10;85.80;;;;;;5007255;29;20049;-72
2021/07/18 11:31:37;;;;;;;22.67;21.08;;;19.20;85.90;;;;;;5046451;29;20096;-71
2021/07/18 11:34:11;;;;;;;21.95;20.35;;;19.20;86.20;;;;;;5051009;29;20072;-71
2021/07/18 11:36:43;;;;;;;22.42;20.83;;;19.20;86.20;;;;;;5048736;29;20052;-71
2021/07/18 11:39:18;;;;;;;22.77;20.98;;;19.30;86.50;;;;;;5048672;29;20040;-70
2021/07/18 11:41:51;;;;;;;22.52;20.92;;;19.30;86.50;;;;;;5049328;29;20052;-71
2021/07/18 11:44:24;;;;;;;21.25;19.65;;;19.40;86.80;;;;;;5051614;29;20071;-71
2021/07/18 11:46:59;;;;;;;21.75;20.25;;;19.40;86.40;;;;;;5035338;29;20120;-72
2021/07/18 11:49:34;;;;;;;21.90;20.30;;;19.50;86.50;;;;;;5047023;29;20055;-72
2021/07/18 11:52:08;;;;;;;21.48;19.98;;;19.50;86.00;;;;;;5047372;29;20048;-72
2021/07/18 11:54:42;;;;;;;21.15;19.65;;;19.50;85.70;;;;;;5048436;29;20116;-74
2021/07/18 11:57:16;;;;;;;21.08;19.58;;;19.40;85.40;;;;;;5046812;29;20143;-71
2021/07/18 11:59:48;;;;;;;20.52;19.13;;;19.30;85.70;;;;;;5047714;29;20533;-71
2021/07/18 12:02:21;;;;;;;20.48;19.08;;;19.30;85.40;;;;;;5050534;29;20076;-71
2021/07/18 12:05:03;;;;;;;20.35;18.95;;;19.30;86.50;;;;;;5033774;29;20143;-71
2021/07/18 12:07:35;;;;;;;20.00;18.60;;;19.40;87.00;;;;;;5052407;29;20057;-71
2021/07/18 12:10:21;;;;;;;19.85;18.45;;;19.40;86.00;;;;;;5039579;29;20063;-70
2021/07/18 12:12:52;;;;;;;20.13;18.73;;;19.40;85.80;;;;;;5048460;29;20826;-71
2021/07/18 12:15:24;;;;;;;20.20;18.80;;;19.50;86.10;;;;;;5048541;29;20040;-70
2021/07/18 12:18:03;;;;;;;20.65;19.25;;;19.60;86.10;;;;;;5048816;29;20754;-70
2021/07/18 12:20:35;;;;;;;20.33;18.92;;;19.70;85.80;;;;;;5047847;29;20053;-70
2021/07/18 12:23:11;;;;;;;20.67;19.27;;;19.80;85.10;;;;;;5042833;29;20057;-70
2021/07/18 12:25:44;;;;;;;20.58;19.17;;;19.80;85.50;;;;;;5049797;29;20045;-70
2021/07/18 12:28:17;;;;;;;20.13;18.73;;;19.80;85.70;;;;;;5051209;29;20108;-70
2021/07/18 12:30:49;;;;;;;20.67;19.27;;;19.80;85.10;;;;;;5050105;29;20569;-70
2021/07/18 12:33:24;;;;;;;20.55;19.15;;;19.80;85.30;;;;;;5048299;29;20601;-69
2021/07/18 12:36:03;;;;;;;21.20;19.70;;;19.70;85.90;;;;;;5048530;29;20072;-70
2021/07/18 12:38:35;;;;;;;20.48;19.08;;;19.80;85.80;;;;;;5030987;29;20044;-70
2021/07/18 12:41:07;;;;;;;20.08;18.67;;;19.80;85.40;;;;;;5046880;29;20135;-70
2021/07/18 12:43:40;;;;;;;20.35;18.95;;;19.80;85.30;;;;;;5032886;29;20079;-70
2021/07/18 12:46:18;;;;;;;20.10;18.70;;;19.80;85.30;;;;;;5048279;29;20045;-71
2021/07/18 12:49:08;;;;;;;20.60;19.20;;;19.70;85.20;;;;;;5046486;29;20067;-71
2021/07/18 12:51:41;;;;;;;;;;;19.70;85.60;;;;;;5045574;29;20056;-72
2021/07/18 12:54:13;;;;;;;20.27;18.88;;;19.70;85.30;;;;;;5048423;29;20011;-72
2021/07/18 12:56:54;;;;;;;20.88;19.38;;;19.70;85.70;;;;;;5049484;29;20137;-72
2021/07/18 12:59:29;;;;;;;21.42;19.92;;;19.70;86.10;;;;;;5046645;29;20056;-68
2021/07/18 13:02:13;;;;;;;21.60;20.10;;;19.80;85.60;;;;;;5043997;29;20045;-69
2021/07/18 13:04:45;;;;;;;21.60;20.02;;;19.70;86.20;;;;;;5042631;29;20053;-68